»·PEaware :: N653SL KBOI-KRNO

N653SL :: KBOI-KRNO

FLIGHT INFORMATION

Flight Status: Arrived
Operator: Privately registered:
United States
More flights under this callsign
Pilot: David I. (28153)
Aircraft: CESSNA 550 CITATION 2/S2/BRAVO
(C550)
More flights by this aircraft type
Origin: KBOI Boise Air Terminal/Gowen
United States
Destination: KRNO Reno/Tahoe Intl
United States
More flights between these airports :: More routes between these airports
Route: +BOI3 BOI HYVAL REO J7 GASSI ANAHO2
File this flight plan on PilotEdge
Remarks:
Altitude:
(Current/Filed)
32,000ft
Speed:
(Current/Filed)
350kts
Departed: 08-Mar-20 11:36 AM
Arrived: 08-Mar-20 12:36 PM
Distance/Time
Traveled:
291nm/1:00
Distance/Time
To Go:
Arrived

Flight Plot

Page will automatically refresh every two minutes.


Map Options




Map Legend


Flown Route
Filed Route
Departure Airport
Arrival Airport
Navaid (VOR, NDB)
Fix

Horizontal Profiles

Position Reports

Time Latitude Longitude Heading Altitude Ground
Speed
08-Mar-20 11:05 43.564059 -116.235854 176 2832ft 0kts
08-Mar-20 11:06 43.564059 -116.235854 176 2832ft 0kts
08-Mar-20 11:07 43.564059 -116.235854 176 2832ft 0kts
08-Mar-20 11:08 43.564059 -116.235854 176 2832ft 0kts
08-Mar-20 11:09 43.564059 -116.235854 176 2832ft 0kts
08-Mar-20 11:10 43.564059 -116.235854 176 2832ft 0kts
08-Mar-20 11:11 43.564059 -116.235854 176 2832ft 0kts
08-Mar-20 11:12 43.564059 -116.235854 176 2832ft 0kts
08-Mar-20 11:13 43.564059 -116.235854 176 2832ft 0kts
08-Mar-20 11:14 43.564059 -116.235854 176 2832ft 0kts
08-Mar-20 11:15 43.564059 -116.235854 176 2832ft 0kts
08-Mar-20 11:16 43.564059 -116.235854 176 2832ft 0kts
08-Mar-20 11:17 43.564059 -116.235854 176 2832ft 0kts
08-Mar-20 11:18 43.564059 -116.235854 176 2832ft 0kts
08-Mar-20 11:19 43.564059 -116.235854 176 2832ft 0kts
08-Mar-20 11:20 43.564059 -116.235854 176 2832ft 0kts
08-Mar-20 11:21 43.564059 -116.235854 176 2832ft 0kts
08-Mar-20 11:22 43.564059 -116.235854 176 2832ft 0kts
08-Mar-20 11:23 43.564059 -116.235854 176 2832ft 0kts
08-Mar-20 11:24 43.564059 -116.235854 176 2832ft 0kts
08-Mar-20 11:25 43.564073 -116.234638 40 2834ft 2kts
08-Mar-20 11:26 43.564105 -116.234599 41 2835ft 0kts
08-Mar-20 11:27 43.564727 -116.235121 296 2835ft 4kts
08-Mar-20 11:28 43.564819 -116.236262 264 2831ft 2kts
08-Mar-20 11:29 43.564643 -116.239126 265 2824ft 9kts
08-Mar-20 11:30 43.565065 -116.240288 357 2823ft 2kts
08-Mar-20 11:31 43.565809 -116.242169 282 2821ft 8kts
08-Mar-20 11:32 43.567237 -116.242669 359 2824ft 8kts
08-Mar-20 11:33 43.568980 -116.242651 2 2827ft 0kts
08-Mar-20 11:34 43.569522 -116.242599 19 2828ft 3kts
08-Mar-20 11:35 43.565514 -116.229501 116 3011ft 140kts
08-Mar-20 11:36 43.546518 -116.164747 111 6159ft 224kts
08-Mar-20 11:37 43.491249 -116.142471 212 8024ft 284kts
08-Mar-20 11:38 43.443698 -116.223051 239 9588ft 276kts
08-Mar-20 11:39 43.401038 -116.322204 239 11495ft 303kts
08-Mar-20 11:40 43.360069 -116.416926 239 13496ft 289kts
08-Mar-20 11:41 43.317524 -116.514979 239 15500ft 307kts
08-Mar-20 11:42 43.272667 -116.618018 239 17189ft 320kts
08-Mar-20 11:43 43.227985 -116.720295 238 18737ft 324kts
08-Mar-20 11:44 43.181501 -116.826329 238 20343ft 323kts
08-Mar-20 11:45 43.134606 -116.930269 233 21908ft 319kts
08-Mar-20 11:46 43.080829 -117.025912 232 23400ft 314kts
08-Mar-20 11:47 43.027308 -117.119067 232 24888ft 307kts
08-Mar-20 11:48 42.975256 -117.209381 232 26356ft 299kts
08-Mar-20 11:49 42.924073 -117.297915 232 27681ft 298kts
08-Mar-20 11:50 42.872998 -117.385942 232 28644ft 307kts
08-Mar-20 11:51 42.819500 -117.477878 232 29643ft 310kts
08-Mar-20 11:52 42.765973 -117.569559 233 30629ft 310kts
08-Mar-20 11:53 42.713586 -117.659055 232 31593ft 308kts
08-Mar-20 11:54 42.659506 -117.751211 232 32022ft 321kts
08-Mar-20 11:55 42.601597 -117.849020 228 31518ft 350kts
08-Mar-20 11:56 42.512852 -117.915846 207 30442ft 381kts
08-Mar-20 11:57 42.415950 -117.975291 207 30017ft 378kts
08-Mar-20 11:58 42.321893 -118.032722 207 30016ft 364kts
08-Mar-20 11:59 42.230964 -118.088063 207 30016ft 355kts
08-Mar-20 12:00 42.141333 -118.142465 207 30015ft 351kts
08-Mar-20 12:01 42.052296 -118.196330 207 30014ft 349kts
08-Mar-20 12:02 41.963814 -118.249684 207 30014ft 348kts
08-Mar-20 12:03 41.876756 -118.302009 207 30017ft 348kts
08-Mar-20 12:04 41.788079 -118.355161 207 30017ft 348kts
08-Mar-20 12:05 41.699567 -118.408052 207 30022ft 348kts
08-Mar-20 12:06 41.610922 -118.460872 207 30032ft 348kts
08-Mar-20 12:07 41.522337 -118.513481 207 30033ft 348kts
08-Mar-20 12:08 41.433972 -118.565796 207 30032ft 348kts
08-Mar-20 12:09 41.345297 -118.618173 207 30031ft 348kts
08-Mar-20 12:10 41.258803 -118.669053 207 30037ft 348kts
08-Mar-20 12:11 41.170277 -118.721029 207 30036ft 348kts
08-Mar-20 12:12 41.090025 -118.768032 207 30035ft 349kts
08-Mar-20 12:13 41.002556 -118.819145 206 30028ft 350kts
08-Mar-20 12:14 40.915934 -118.869478 205 29204ft 323kts
08-Mar-20 12:15 40.844089 -118.911195 205 27679ft 315kts
08-Mar-20 12:16 40.761808 -118.958824 204 26149ft 331kts
08-Mar-20 12:17 40.677284 -119.007599 204 24774ft 340kts
08-Mar-20 12:18 40.589260 -119.058275 204 23377ft 349kts
08-Mar-20 12:19 40.499189 -119.109983 204 21964ft 352kts
08-Mar-20 12:20 40.410212 -119.160894 204 20645ft 338kts
08-Mar-20 12:21 40.324871 -119.209603 204 19021ft 334kts
08-Mar-20 12:22 40.239614 -119.258121 203 17299ft 332kts
08-Mar-20 12:23 40.155380 -119.305920 203 16013ft 319kts
08-Mar-20 12:24 40.078795 -119.353598 214 16006ft 296kts
08-Mar-20 12:25 40.011503 -119.415403 214 16006ft 297kts
08-Mar-20 12:26 39.942439 -119.477045 213 16005ft 302kts
08-Mar-20 12:27 39.872454 -119.538836 213 16010ft 304kts
08-Mar-20 12:28 39.802166 -119.600836 213 16009ft 305kts
08-Mar-20 12:29 39.735535 -119.659674 213 14646ft 284kts
08-Mar-20 12:30 39.673636 -119.714638 213 12694ft 246kts
08-Mar-20 12:31 39.618912 -119.760801 192 9485ft 187kts
08-Mar-20 12:32 39.575269 -119.766931 175 7182ft 131kts
08-Mar-20 12:33 39.540412 -119.766774 176 5161ft 110kts
08-Mar-20 12:34 39.512439 -119.766770 178 4428ft 94kts
08-Mar-20 12:35 39.502846 -119.765934 95 4416ft 5kts
08-Mar-20 12:36 39.502095 -119.765717 180 4416ft 9kts
08-Mar-20 12:37 39.500840 -119.765261 85 4416ft 1kts
08-Mar-20 12:38 39.500013 -119.765197 179 4416ft 6kts
08-Mar-20 12:39 39.498750 -119.765144 158 4416ft 3kts
08-Mar-20 12:40 39.498799 -119.764452 352 4416ft 5kts
08-Mar-20 12:41 39.499138 -119.764900 267 4416ft 0kts
08-Mar-20 12:42 39.499138 -119.764900 267 4416ft 0kts

Navigation Log

Ident Type
Flight plan parsing failed, navigation log unavailable